Time;durP1;ratioP1;P1;durP2;ratioP2;P2;SDS_P1;SDS_P2;PMS_P1;PMS_P2;Temp;Humidity;BMP_temperature;BMP_pressure;BME280_temperature;BME280_humidity;BME280_pressure;Samples;Min_cycle;Max_cycle;Signal;HPM_P1;HPM_P2
2021/04/09 00:00:31;;;;;;;9.60;6.45;;;;;;;4.30;54.33;99757.75;5012705;28;20045;-69
2021/04/09 00:02:57;;;;;;;12.73;6.15;;;;;;;4.38;54.36;99754.94;5012882;28;20156;-70
2021/04/09 00:05:22;;;;;;;10.10;5.60;;;;;;;4.41;53.90;99749.66;5012894;28;20046;-68
2021/04/09 00:07:49;;;;;;;6.80;4.75;;;;;;;4.46;53.89;99753.88;5012680;28;20030;-68
2021/04/09 00:10:16;;;;;;;21.67;6.38;;;;;;;4.51;53.59;99749.38;5012238;28;20053;-70
2021/04/09 00:12:41;;;;;;;11.73;6.13;;;;;;;4.52;53.46;99748.47;5012561;28;20041;-67
2021/04/09 00:15:09;;;;;;;11.00;6.13;;;;;;;4.55;53.24;99744.09;5013268;28;20365;-68
2021/04/09 00:17:35;;;;;;;10.68;5.28;;;;;;;4.56;53.81;99746.66;5012739;28;20026;-70
2021/04/09 00:20:00;;;;;;;11.68;5.90;;;;;;;4.56;53.56;99738.00;5012581;28;20076;-68
2021/04/09 00:22:26;;;;;;;13.18;7.20;;;;;;;4.56;53.51;99735.38;5012616;28;20409;-69
2021/04/09 00:24:51;;;;;;;10.77;5.90;;;;;;;4.56;53.40;99741.44;5012488;28;20045;-69
2021/04/09 00:27:16;;;;;;;12.50;6.20;;;;;;;4.57;53.30;99737.94;5012267;28;20046;-68
2021/04/09 00:29:42;;;;;;;11.98;5.97;;;;;;;4.57;53.17;99739.69;5011937;28;20057;-68
2021/04/09 00:32:08;;;;;;;13.25;5.82;;;;;;;4.57;53.22;99724.03;5013076;28;20041;-68
2021/04/09 00:34:34;;;;;;;10.23;6.13;;;;;;;4.61;53.08;99730.91;5012744;28;20070;-68
2021/04/09 00:36:59;;;;;;;10.55;6.72;;;;;;;4.62;52.94;99719.53;5012556;28;20068;-68
2021/04/09 00:39:24;;;;;;;11.93;7.57;;;;;;;4.65;53.33;99727.28;5012120;28;20038;-68
2021/04/09 00:41:50;;;;;;;9.25;6.82;;;;;;;4.64;52.87;99723.81;5012106;28;20061;-68
2021/04/09 00:44:15;;;;;;;11.00;6.82;;;;;;;4.65;53.02;99714.22;5012308;28;20120;-68
2021/04/09 00:46:40;;;;;;;14.15;7.13;;;;;;;4.67;52.91;99707.22;5012272;28;20034;-68
2021/04/09 00:49:06;;;;;;;12.23;6.13;;;;;;;4.69;52.67;99705.44;5012652;28;20061;-67
2021/04/09 00:51:33;;;;;;;9.45;6.80;;;;;;;4.71;53.07;99711.47;5003722;28;20840;-67
2021/04/09 00:53:59;;;;;;;8.93;5.80;;;;;;;4.71;52.72;99714.94;4973256;28;20388;-69
2021/04/09 00:56:28;;;;;;;15.30;8.00;;;;;;;4.71;52.85;99708.84;4973162;28;20085;-68
2021/04/09 00:58:55;;;;;;;16.05;7.22;;;;;;;4.71;52.50;99699.25;4973165;28;20486;-68
2021/04/09 01:01:21;;;;;;;11.15;7.72;;;;;;;4.72;52.54;99698.34;4958133;28;20035;-69
2021/04/09 01:03:46;;;;;;;12.18;7.50;;;;;;;4.72;52.53;99703.56;4973375;28;20037;-68
2021/04/09 01:06:12;;;;;;;11.40;6.90;;;;;;;4.73;52.81;99694.00;4972682;28;20090;-68
2021/04/09 01:08:38;;;;;;;13.82;7.85;;;;;;;4.72;53.04;99697.50;4972716;28;20512;-68
2021/04/09 01:11:04;;;;;;;12.52;8.45;;;;;;;4.72;52.46;99698.34;4972945;28;20126;-68
2021/04/09 01:13:29;;;;;;;10.20;7.10;;;;;;;4.73;52.63;99696.63;4972822;28;20432;-68
2021/04/09 01:15:55;;;;;;;15.85;8.45;;;;;;;4.72;52.71;99700.13;4972669;28;20030;-68
2021/04/09 01:18:29;;;;;;;12.93;7.30;;;;;;;4.72;53.00;99692.28;4972775;28;20038;-68
2021/04/09 01:21:15;;;;;;;12.75;7.20;;;;;;;4.69;52.72;99692.38;4972879;28;20034;-68
2021/04/09 01:23:44;;;;;;;;;;;;;;;4.67;52.57;99692.41;4973306;28;20043;-69
2021/04/09 01:26:48;;;;;;;9.70;6.95;;;;;;;4.67;52.68;99688.94;4972719;28;19925;-68
2021/04/09 01:29:52;;;;;;;11.45;7.28;;;;;;;4.63;52.61;99690.78;4956484;28;20617;-68
2021/04/09 01:32:18;;;;;;;13.27;6.90;;;;;;;4.61;53.17;99684.75;4942166;28;20552;-68
2021/04/09 01:34:46;;;;;;;10.02;7.63;;;;;;;4.64;52.92;99686.41;4972212;28;20037;-67
2021/04/09 01:37:17;;;;;;;13.52;7.88;;;;;;;4.62;53.14;99677.75;4972210;28;20050;-67
2021/04/09 01:39:55;;;;;;;18.65;7.82;;;;;;;4.62;52.82;99677.75;4971705;28;20422;-68
2021/04/09 01:42:22;;;;;;;10.73;7.00;;;;;;;4.61;52.97;99674.31;4972104;28;20038;-68
2021/04/09 01:44:53;;;;;;;14.63;8.57;;;;;;;4.61;53.17;99676.91;4972792;28;20031;-67
2021/04/09 01:47:26;;;;;;;12.40;8.13;;;;;;;4.60;52.92;99671.72;4972081;28;20066;-67
2021/04/09 01:49:55;;;;;;;14.57;7.97;;;;;;;4.58;53.26;99669.16;4971164;28;20041;-68
2021/04/09 01:52:23;;;;;;;12.07;6.93;;;;;;;4.58;53.33;99670.91;4972594;28;20113;-69
2021/04/09 01:54:49;;;;;;;10.02;6.93;;;;;;;4.60;53.25;99666.50;4985210;28;20373;-68
2021/04/09 01:57:18;;;;;;;13.20;6.70;;;;;;;4.55;53.17;99661.41;5010647;28;20072;-68
2021/04/09 01:59:45;;;;;;;12.88;6.78;;;;;;;4.53;53.66;99655.38;5010316;28;20104;-69
2021/04/09 02:02:11;;;;;;;10.13;6.55;;;;;;;4.55;53.36;99658.78;5010928;28;22167;-68
2021/04/09 02:04:38;;;;;;;10.00;6.95;;;;;;;4.57;53.19;99653.53;5008713;28;20108;-69
2021/04/09 02:07:04;;;;;;;9.70;6.38;;;;;;;4.59;53.22;99649.13;4991017;28;20069;-68
2021/04/09 02:09:31;;;;;;;16.30;7.15;;;;;;;4.55;53.42;99644.88;4989981;28;20379;-68
2021/04/09 02:11:58;;;;;;;13.85;7.20;;;;;;;4.54;53.25;99638.81;4991235;28;20031;-69
2021/04/09 02:14:25;;;;;;;13.88;6.43;;;;;;;4.52;53.52;99644.06;4990982;28;20088;-68
2021/04/09 02:16:53;;;;;;;16.40;7.40;;;;;;;4.49;53.84;99641.53;4991358;28;20036;-68
2021/04/09 02:19:19;;;;;;;11.50;7.05;;;;;;;4.49;53.63;99636.31;4990394;28;20050;-68
2021/04/09 02:21:45;;;;;;;12.25;7.13;;;;;;;4.50;53.86;99638.06;4990795;28;20441;-68
2021/04/09 02:24:10;;;;;;;16.35;7.32;;;;;;;4.52;53.33;99638.84;4990649;28;20153;-69
2021/04/09 02:26:37;;;;;;;15.93;8.30;;;;;;;4.54;53.01;99638.81;4990876;28;20030;-68
2021/04/09 02:29:04;;;;;;;11.18;6.10;;;;;;;4.55;53.39;99632.69;4972937;28;20118;-68
2021/04/09 02:31:30;;;;;;;10.25;6.57;;;;;;;4.57;53.31;99630.03;4989410;28;20054;-69
2021/04/09 02:33:55;;;;;;;13.63;6.53;;;;;;;4.58;53.07;99622.19;4990510;28;20460;-67
2021/04/09 02:36:23;;;;;;;13.63;8.32;;;;;;;4.58;53.51;99621.28;4990958;28;20037;-67
2021/04/09 02:38:58;;;;;;;12.07;7.43;;;;;;;4.60;53.30;99625.56;4990479;28;20037;-67
2021/04/09 02:41:28;;;;;;;9.70;6.70;;;;;;;4.59;53.15;99612.59;4990612;28;20065;-68
2021/04/09 02:43:55;;;;;;;11.23;6.50;;;;;;;4.60;53.21;99620.34;4990983;28;20062;-68
2021/04/09 02:46:30;;;;;;;9.18;5.68;;;;;;;4.60;52.90;99604.69;4991134;28;20076;-69
2021/04/09 02:49:00;;;;;;;10.02;5.68;;;;;;;4.60;53.55;99609.06;4987977;28;20034;-68
2021/04/09 02:51:26;;;;;;;10.13;6.15;;;;;;;4.60;53.28;99607.31;4970747;28;20035;-68
2021/04/09 02:53:55;;;;;;;10.35;6.38;;;;;;;4.61;53.38;99600.34;4971308;28;20026;-69
2021/04/09 02:56:23;;;;;;;8.07;5.40;;;;;;;4.62;53.50;99602.03;4972791;28;20070;-68
2021/04/09 02:58:50;;;;;;;14.25;7.72;;;;;;;4.61;53.20;99603.81;4989968;28;20027;-68
2021/04/09 03:01:15;;;;;;;15.48;7.15;;;;;;;4.64;53.32;99597.66;4989892;28;20030;-68
2021/04/09 03:03:41;;;;;;;9.20;5.82;;;;;;;4.67;53.21;99594.94;4990195;28;20032;-68
2021/04/09 03:06:06;;;;;;;9.88;5.90;;;;;;;4.67;52.99;99600.16;4987538;28;20034;-68
2021/04/09 03:08:32;;;;;;;17.00;6.28;;;;;;;4.65;52.99;99596.72;4970366;28;20455;-68
2021/04/09 03:11:01;;;;;;;10.00;6.15;;;;;;;4.68;52.96;99597.53;4970560;28;20069;-68
2021/04/09 03:13:27;;;;;;;7.75;5.93;;;;;;;4.71;52.95;99592.19;4953548;28;20065;-68
2021/04/09 03:15:57;;;;;;;10.82;6.18;;;;;;;4.70;53.14;99582.66;4970942;28;20494;-68
2021/04/09 03:18:24;;;;;;;10.55;7.47;;;;;;;4.70;52.86;99573.97;4970645;28;20490;-68
2021/04/09 03:20:49;;;;;;;8.73;5.57;;;;;;;4.71;53.00;99581.75;4969740;28;20034;-67
2021/04/09 03:23:15;;;;;;;14.10;7.25;;;;;;;4.73;53.04;99584.34;4970584;28;20042;-68
2021/04/09 03:25:40;;;;;;;8.88;5.25;;;;;;;4.73;53.12;99574.75;4953359;28;20027;-68
2021/04/09 03:28:06;;;;;;;8.30;5.75;;;;;;;4.76;52.89;99572.94;4970031;28;20039;-68
2021/04/09 03:30:32;;;;;;;16.13;7.05;;;;;;;4.78;52.81;99565.94;4970227;28;20042;-68
2021/04/09 03:32:57;;;;;;;9.48;5.68;;;;;;;4.80;52.81;99574.56;4970599;28;20081;-69
2021/04/09 03:35:23;;;;;;;12.95;6.03;;;;;;;4.80;52.90;99567.59;4970641;28;20034;-69
2021/04/09 03:37:48;;;;;;;15.93;5.95;;;;;;;4.80;52.49;99566.72;4970718;28;20453;-69
2021/04/09 03:40:14;;;;;;;10.20;6.50;;;;;;;4.79;52.83;99560.63;4970104;28;20062;-69
2021/04/09 03:42:40;;;;;;;11.70;6.07;;;;;;;4.79;53.33;99563.25;4970664;28;20456;-69
2021/04/09 03:45:06;;;;;;;13.48;6.32;;;;;;;4.78;52.73;99556.34;4970249;28;20117;-69
2021/04/09 03:47:32;;;;;;;15.48;7.07;;;;;;;4.77;53.15;99554.59;4970208;28;20545;-69
2021/04/09 03:49:58;;;;;;;9.30;6.05;;;;;;;4.77;53.00;99548.53;4969913;28;20055;-68
2021/04/09 03:52:24;;;;;;;7.68;6.00;;;;;;;4.78;53.05;99550.25;4970470;28;20051;-69
2021/04/09 03:54:49;;;;;;;9.85;5.95;;;;;;;4.78;53.06;99538.06;4983925;28;20037;-69
2021/04/09 03:57:15;;;;;;;10.57;6.55;;;;;;;4.78;53.00;99543.28;5009216;28;20157;-67
2021/04/09 03:59:40;;;;;;;17.23;6.75;;;;;;;4.78;52.71;99539.81;5008541;28;20489;-69
2021/04/09 04:02:06;;;;;;;9.00;5.65;;;;;;;4.80;52.66;99535.38;5009148;28;20030;-68
2021/04/09 04:04:31;;;;;;;12.95;5.97;;;;;;;4.81;52.73;99540.56;5009576;28;20509;-69
2021/04/09 04:06:56;;;;;;;10.32;5.57;;;;;;;4.83;52.75;99543.16;5009467;28;20077;-68
2021/04/09 04:09:22;;;;;;;6.32;4.60;;;;;;;4.84;52.70;99544.84;4994418;28;20037;-68
2021/04/09 04:11:47;;;;;;;8.32;4.82;;;;;;;4.85;52.81;99542.19;5010268;28;20074;-69
2021/04/09 04:14:13;;;;;;;8.43;5.40;;;;;;;4.84;52.87;99540.47;5009304;28;20101;-68
2021/04/09 04:16:38;;;;;;;8.57;4.07;;;;;;;4.89;52.73;99537.72;5008907;28;20121;-68
2021/04/09 04:19:03;;;;;;;8.40;5.28;;;;;;;4.90;52.09;99532.47;4991888;28;20688;-68
2021/04/09 04:21:29;;;;;;;8.88;4.90;;;;;;;4.92;52.33;99524.56;5009144;28;20056;-67
2021/04/09 04:23:54;;;;;;;12.82;7.05;;;;;;;4.94;52.69;99535.81;5008947;28;20042;-68
2021/04/09 04:26:19;;;;;;;10.90;5.15;;;;;;;4.93;52.67;99524.53;5010126;28;20528;-68
2021/04/09 04:28:45;;;;;;;9.48;5.07;;;;;;;4.95;52.57;99521.88;5009324;28;20033;-69
2021/04/09 04:31:11;;;;;;;8.40;5.70;;;;;;;4.97;52.56;99527.03;5009532;28;20062;-68
2021/04/09 04:33:37;;;;;;;9.52;5.78;;;;;;;4.98;52.55;99527.00;5012782;28;20062;-67
2021/04/09 04:36:03;;;;;;;7.63;4.75;;;;;;;5.00;52.71;99521.75;5012834;28;20077;-67
2021/04/09 04:38:28;;;;;;;11.65;6.10;;;;;;;4.99;52.79;99528.69;5011982;28;20030;-67
2021/04/09 04:40:54;;;;;;;8.48;5.10;;;;;;;5.03;52.17;99521.63;4992267;28;20058;-69
2021/04/09 04:43:19;;;;;;;9.00;5.00;;;;;;;5.05;52.17;99518.06;4973581;28;20125;-68
2021/04/09 04:45:46;;;;;;;9.57;5.40;;;;;;;5.09;52.17;99516.22;4973300;28;20042;-68
2021/04/09 04:48:12;;;;;;;8.85;5.32;;;;;;;5.14;51.73;99524.75;4972709;28;20466;-68
2021/04/09 04:50:37;;;;;;;10.35;5.18;;;;;;;5.19;51.59;99522.84;4972873;28;20038;-68
2021/04/09 04:53:04;;;;;;;7.28;5.00;;;;;;;5.24;51.50;99517.47;4973078;28;20065;-68
2021/04/09 04:55:30;;;;;;;8.20;5.38;;;;;;;5.30;51.56;99531.22;4996971;28;20064;-68
2021/04/09 04:57:55;;;;;;;10.82;5.32;;;;;;;5.36;51.26;99531.00;5012164;28;20061;-68
2021/04/09 05:00:21;;;;;;;6.78;5.43;;;;;;;5.42;51.32;99526.50;5011667;28;20131;-68
2021/04/09 05:02:46;;;;;;;8.07;5.35;;;;;;;5.47;51.03;99525.44;5011604;28;20041;-68
2021/04/09 05:05:12;;;;;;;8.60;5.40;;;;;;;5.50;51.09;99522.72;4995834;28;20393;-68
2021/04/09 05:07:37;;;;;;;10.45;4.70;;;;;;;5.55;50.78;99519.97;4973013;28;20102;-68
2021/04/09 05:10:07;;;;;;;7.47;5.40;;;;;;;5.59;50.92;99521.59;4972519;28;20576;-69
2021/04/09 05:12:34;;;;;;;10.38;5.45;;;;;;;5.65;50.63;99517.91;4972934;28;20030;-69
2021/04/09 05:14:59;;;;;;;10.85;5.55;;;;;;;5.68;50.86;99526.50;4972947;28;20031;-69
2021/04/09 05:17:25;;;;;;;9.02;5.13;;;;;;;5.71;50.55;99517.69;4972978;28;20622;-69
2021/04/09 05:19:50;;;;;;;7.55;5.30;;;;;;;5.72;50.14;99516.78;4972248;28;20035;-69
2021/04/09 05:22:15;;;;;;;9.95;5.55;;;;;;;5.78;50.41;99520.06;4972677;28;20039;-69
2021/04/09 05:24:41;;;;;;;7.60;5.20;;;;;;;5.84;50.29;99516.38;4972431;28;20375;-69
2021/04/09 05:27:06;;;;;;;7.90;4.88;;;;;;;5.88;49.88;99512.75;4972601;28;20050;-69
2021/04/09 05:29:33;;;;;;;9.43;5.63;;;;;;;5.89;49.76;99519.69;4972083;28;20047;-69
2021/04/09 05:31:59;;;;;;;13.45;5.82;;;;;;;5.96;49.93;99512.53;4972961;28;20038;-68
2021/04/09 05:34:24;;;;;;;9.65;6.00;;;;;;;6.02;50.06;99514.91;4973751;28;20509;-68
2021/04/09 05:36:49;;;;;;;14.18;5.57;;;;;;;6.07;49.38;99517.38;4973226;28;20035;-69
2021/04/09 05:39:15;;;;;;;7.70;5.10;;;;;;;6.15;49.41;99512.72;4972705;28;20062;-69
2021/04/09 05:41:40;;;;;;;7.70;4.63;;;;;;;6.22;49.08;99514.19;4973725;28;20027;-68
2021/04/09 05:44:06;;;;;;;14.07;6.63;;;;;;;6.26;48.96;99510.59;4972511;28;20026;-68
2021/04/09 05:46:32;;;;;;;10.18;5.75;;;;;;;6.33;49.33;99511.22;4973292;28;20047;-69
2021/04/09 05:48:57;;;;;;;10.07;5.57;;;;;;;6.38;48.65;99515.38;4972419;28;20663;-68
2021/04/09 05:51:23;;;;;;;9.95;5.50;;;;;;;6.47;48.56;99516.78;4972303;28;20388;-70
2021/04/09 05:53:48;;;;;;;11.15;5.97;;;;;;;6.58;48.41;99519.03;4974024;28;20041;-70
2021/04/09 05:56:15;;;;;;;9.25;5.68;;;;;;;6.67;48.14;99513.44;4992161;28;20033;-69
2021/04/09 05:58:40;;;;;;;10.30;6.22;;;;;;;6.75;48.06;99508.75;5011699;28;20026;-70
2021/04/09 06:01:06;;;;;;;15.20;5.60;;;;;;;6.74;47.74;99512.28;5013019;28;20382;-69
2021/04/09 06:03:31;;;;;;;8.27;5.70;;;;;;;6.81;47.59;99511.13;4994491;28;20037;-69
2021/04/09 06:05:57;;;;;;;9.98;6.13;;;;;;;6.87;47.50;99502.22;5011605;28;20136;-68
2021/04/09 06:08:22;;;;;;;15.32;6.53;;;;;;;6.96;47.33;99503.59;5011312;28;20038;-69
2021/04/09 06:10:47;;;;;;;10.52;5.85;;;;;;;7.00;47.01;99508.66;5009631;28;20033;-69
2021/04/09 06:13:14;;;;;;;10.27;5.88;;;;;;;7.07;46.98;99497.03;4993071;28;20277;-69
2021/04/09 06:15:40;;;;;;;9.38;5.35;;;;;;;7.13;46.67;99497.69;5010943;28;20026;-68
2021/04/09 06:18:06;;;;;;;9.27;5.43;;;;;;;7.16;46.52;99497.56;5010529;28;20128;-68
2021/04/09 06:20:31;;;;;;;10.57;6.07;;;;;;;7.19;46.65;99494.84;5009559;28;20118;-68
2021/04/09 06:22:56;;;;;;;9.40;5.60;;;;;;;7.25;46.50;99497.22;5010403;28;20396;-68
2021/04/09 06:25:22;;;;;;;13.23;7.05;;;;;;;7.28;46.32;99494.47;4993351;28;20030;-68
2021/04/09 06:27:48;;;;;;;10.88;5.43;;;;;;;7.29;46.51;99491.78;5010034;28;20030;-69
2021/04/09 06:30:14;;;;;;;11.98;6.15;;;;;;;7.32;46.41;99485.56;5010009;28;20056;-69
2021/04/09 06:32:39;;;;;;;8.85;5.82;;;;;;;7.42;46.23;99489.50;5010205;28;20572;-70
2021/04/09 06:35:06;;;;;;;9.80;6.13;;;;;;;7.53;45.81;99489.94;5010097;28;20033;-69
2021/04/09 06:37:31;;;;;;;17.42;6.70;;;;;;;7.63;45.38;99489.53;5010116;28;20036;-69
2021/04/09 06:39:56;;;;;;;11.00;5.47;;;;;;;7.79;45.18;99482.72;5009633;28;20121;-69
2021/04/09 06:42:22;;;;;;;10.90;6.20;;;;;;;7.99;44.36;99488.88;5010180;28;20109;-69
2021/04/09 06:44:48;;;;;;;10.63;6.32;;;;;;;8.08;43.93;99486.72;4986556;28;20366;-69
2021/04/09 06:47:15;;;;;;;16.52;6.93;;;;;;;8.31;43.79;99484.84;4970832;28;20090;-69
2021/04/09 06:49:41;;;;;;;9.23;5.60;;;;;;;8.47;43.53;99482.44;4970371;28;20490;-68
2021/04/09 06:52:10;;;;;;;11.85;5.90;;;;;;;8.60;42.86;99483.56;4970931;28;20081;-69
2021/04/09 06:54:36;;;;;;;15.20;6.53;;;;;;;8.79;42.46;99479.16;4980369;28;20492;-69
2021/04/09 06:57:02;;;;;;;12.45;6.90;;;;;;;8.94;42.68;99479.38;5009662;28;20059;-69
2021/04/09 06:59:31;;;;;;;9.88;6.60;;;;;;;8.95;41.73;99476.63;5009277;28;20160;-68
2021/04/09 07:01:58;;;;;;;10.23;6.55;;;;;;;9.14;41.65;99473.16;4996101;28;20030;-69
2021/04/09 07:04:24;;;;;;;12.35;6.32;;;;;;;9.24;40.99;99475.25;4990627;28;20046;-68
2021/04/09 07:06:50;;;;;;;10.20;5.50;;;;;;;9.59;40.89;99479.69;4984115;28;20031;-69
2021/04/09 07:09:16;;;;;;;13.18;6.63;;;;;;;9.74;40.00;99478.06;4970515;28;20042;-67
2021/04/09 07:11:49;;;;;;;10.15;5.80;;;;;;;9.83;40.43;99480.25;4970769;28;20057;-68
2021/04/09 07:14:14;;;;;;;11.50;5.50;;;;;;;9.71;40.45;99463.28;4970293;28;20372;-69
2021/04/09 07:16:59;;;;;;;35.67;7.38;;;;;;;9.72;40.16;99465.00;4970356;28;20070;-70
2021/04/09 07:19:35;;;;;;;15.73;7.00;;;;;;;9.74;40.28;99478.91;4970367;28;20057;-69
2021/04/09 07:22:05;;;;;;;15.25;6.05;;;;;;;9.68;39.96;99466.91;4970585;28;20035;-69
2021/04/09 07:24:34;;;;;;;9.70;6.43;;;;;;;9.63;39.95;99474.19;4970468;28;20087;-69
2021/04/09 07:27:00;;;;;;;10.68;6.00;;;;;;;9.57;40.57;99465.75;4970392;28;20038;-69
2021/04/09 07:29:31;;;;;;;12.63;6.95;;;;;;;9.72;40.62;99457.09;4970447;28;20047;-69
2021/04/09 07:32:23;;;;;;;11.77;6.57;;;;;;;9.96;39.32;99464.66;4953701;28;20110;-68
2021/04/09 07:34:59;;;;;;;10.15;7.03;;;;;;;10.22;38.68;99455.41;4970620;28;20035;-69
2021/04/09 07:37:27;;;;;;;11.43;6.88;;;;;;;10.60;38.05;99455.97;4953756;28;20522;-69
2021/04/09 07:40:04;;;;;;;12.13;7.10;;;;;;;11.04;37.65;99454.47;4970390;28;20041;-69
2021/04/09 07:42:38;;;;;;;10.52;6.78;;;;;;;11.39;37.86;99455.94;4970386;28;20030;-69
2021/04/09 07:45:10;;;;;;;12.25;7.00;;;;;;;11.51;36.40;99443.81;4970309;28;20109;-69
2021/04/09 07:47:36;;;;;;;17.40;7.97;;;;;;;11.54;36.17;99456.84;4970199;28;20055;-70
2021/04/09 07:50:09;;;;;;;14.85;8.77;;;;;;;11.53;36.07;99452.47;4978205;28;20560;-68
2021/04/09 07:52:45;;;;;;;12.90;8.02;;;;;;;11.72;36.17;99452.25;4989814;28;20042;-69
2021/04/09 07:55:15;;;;;;;26.70;12.95;;;;;;;11.72;35.95;99446.13;4999912;28;20111;-68
2021/04/09 07:57:41;;;;;;;14.00;8.98;;;;;;;11.57;36.06;99447.91;5009288;28;20116;-68
2021/04/09 08:00:17;;;;;;;23.27;11.75;;;;;;;11.68;36.37;99445.44;5008445;28;20113;-68
2021/04/09 08:02:42;;;;;;;19.95;10.05;;;;;;;11.82;35.28;99447.28;5009092;28;20042;-69
2021/04/09 08:05:08;;;;;;;21.20;10.73;;;;;;;12.02;35.78;99454.03;4996212;28;20093;-68
2021/04/09 08:07:34;;;;;;;22.27;11.70;;;;;;;12.53;35.08;99448.25;4992557;28;20041;-69
2021/04/09 08:10:00;;;;;;;16.30;8.45;;;;;;;13.04;34.14;99449.41;4993268;28;20038;-69
2021/04/09 08:12:34;;;;;;;14.68;8.98;;;;;;;13.33;33.22;99449.31;4993431;28;20030;-69
2021/04/09 08:15:29;;;;;;;15.75;9.52;;;;;;;13.55;33.18;99440.78;4993188;28;20030;-69
2021/04/09 08:18:05;;;;;;;13.32;7.85;;;;;;;14.06;32.40;99447.97;4993509;28;20042;-68
2021/04/09 08:20:43;;;;;;;12.82;8.48;;;;;;;14.63;31.35;99436.03;4992544;28;20042;-69
2021/04/09 08:23:10;;;;;;;26.83;9.32;;;;;;;14.85;31.59;99440.66;4992997;28;20030;-68
2021/04/09 08:25:38;;;;;;;12.13;6.78;;;;;;;14.76;31.04;99437.69;4993048;28;20057;-67
2021/04/09 08:28:09;;;;;;;14.45;5.90;;;;;;;14.76;30.76;99444.81;4992486;28;20030;-69
2021/04/09 08:30:35;;;;;;;12.15;5.90;;;;;;;14.46;30.91;99447.81;4992280;28;20038;-67
2021/04/09 08:33:01;;;;;;;11.32;6.03;;;;;;;14.37;31.12;99450.16;4992838;28;20085;-68
2021/04/09 08:35:27;;;;;;;9.73;7.05;;;;;;;14.34;31.34;99446.88;4993351;28;20046;-68
2021/04/09 08:37:54;;;;;;;9.00;5.50;;;;;;;14.10;31.65;99444.13;4992548;28;20040;-68
2021/04/09 08:40:20;;;;;;;13.10;6.68;;;;;;;13.91;32.24;99455.16;4992348;28;20132;-69
2021/04/09 08:42:45;;;;;;;13.07;6.45;;;;;;;13.82;32.83;99450.47;4992411;28;20034;-70
2021/04/09 08:45:13;;;;;;;11.88;5.82;;;;;;;13.87;32.60;99461.63;4985674;28;20046;-68
2021/04/09 08:47:40;;;;;;;11.23;6.80;;;;;;;13.46;32.61;99463.47;4973367;28;20062;-69
2021/04/09 08:50:09;;;;;;;14.02;7.32;;;;;;;13.22;34.04;99460.59;4972077;28;20039;-69
2021/04/09 08:52:42;;;;;;;11.85;6.80;;;;;;;13.07;34.49;99457.13;4973118;28;20117;-69
2021/04/09 08:55:10;;;;;;;9.02;5.70;;;;;;;12.98;33.36;99465.66;4991082;28;20092;-69
2021/04/09 08:57:38;;;;;;;14.90;6.15;;;;;;;12.75;34.34;99463.63;5010813;28;20038;-69
2021/04/09 09:00:16;;;;;;;12.48;6.28;;;;;;;13.01;34.45;99470.75;5011535;28;20034;-68
2021/04/09 09:02:54;;;;;;;12.02;6.10;;;;;;;12.96;34.21;99464.91;5010398;28;20034;-68
2021/04/09 09:05:22;;;;;;;15.88;6.45;;;;;;;13.08;34.08;99464.13;5011652;28;20113;-68
2021/04/09 09:07:53;;;;;;;12.73;5.78;;;;;;;13.45;32.81;99463.53;4984415;28;20041;-70
2021/04/09 09:10:22;;;;;;;9.23;6.13;;;;;;;13.37;33.39;99457.91;4972587;28;20042;-69
2021/04/09 09:13:02;;;;;;;118.20;13.65;;;;;;;12.98;33.75;99463.03;4972776;28;20035;-69
2021/04/09 09:15:45;;;;;;;13.85;7.10;;;;;;;13.18;34.20;99452.94;4972889;28;20394;-69
2021/04/09 09:18:23;;;;;;;13.13;6.63;;;;;;;13.34;33.78;99460.75;4972270;28;20046;-70
2021/04/09 09:21:09;;;;;;;50.58;12.00;;;;;;;13.35;33.70;99463.31;4973280;28;20034;-68
2021/04/09 09:23:58;;;;;;;26.20;9.35;;;;;;;13.07;34.04;99453.66;4986053;28;20529;-68
2021/04/09 09:26:40;;;;;;;11.10;6.25;;;;;;;12.83;34.78;99454.28;4984324;28;20046;-68
2021/04/09 09:29:29;;;;;;;15.68;6.82;;;;;;;12.58;34.96;99456.78;4991273;28;20083;-68
2021/04/09 09:31:59;;;;;;;19.38;8.23;;;;;;;12.59;35.71;99451.38;4992170;28;20068;-68
2021/04/09 09:34:24;;;;;;;13.63;6.18;;;;;;;12.49;34.95;99452.91;4991808;28;20034;-69
2021/04/09 09:37:18;;;;;;;10.23;6.15;;;;;;;12.57;34.52;99450.63;4992027;28;20783;-68
2021/04/09 09:40:07;;;;;;;10.32;5.85;;;;;;;12.48;35.04;99458.28;4991297;28;20036;-68
2021/04/09 09:42:36;;;;;;;13.52;6.85;;;;;;;12.39;35.22;99462.34;4991947;28;20034;-69
2021/04/09 09:45:03;;;;;;;27.63;9.57;;;;;;;12.27;35.78;99463.13;4993633;28;20042;-69
2021/04/09 09:47:31;;;;;;;13.23;6.55;;;;;;;12.11;36.10;99461.41;4996584;28;20030;-69
2021/04/09 09:50:03;;;;;;;16.35;7.03;;;;;;;11.99;36.55;99459.50;4978069;28;20042;-68
2021/04/09 09:52:53;;;;;;;14.65;7.25;;;;;;;12.06;36.22;99465.25;4996247;28;20042;-70
2021/04/09 09:55:35;;;;;;;12.43;7.30;;;;;;;12.17;36.43;99465.47;5001945;28;20034;-68
2021/04/09 09:58:14;;;;;;;12.65;6.35;;;;;;;12.32;35.71;99466.31;5010746;28;20044;-68
2021/04/09 10:00:45;;;;;;;11.73;5.90;;;;;;;12.47;35.94;99452.16;5011070;28;20041;-68
2021/04/09 10:03:22;;;;;;;11.80;7.93;;;;;;;12.86;35.42;99455.88;5011149;28;20042;-68
2021/04/09 10:05:52;;;;;;;16.27;7.13;;;;;;;13.07;34.48;99456.31;5010501;28;20493;-68
2021/04/09 10:08:19;;;;;;;13.80;6.07;;;;;;;12.98;35.56;99456.88;5010234;28;20038;-68
2021/04/09 10:10:51;;;;;;;15.35;7.28;;;;;;;12.97;35.30;99447.22;5009269;28;20058;-69
2021/04/09 10:13:23;;;;;;;10.10;6.65;;;;;;;12.99;35.38;99448.81;5010526;28;20038;-68
2021/04/09 10:15:50;;;;;;;18.25;6.70;;;;;;;13.11;35.96;99450.69;5010359;28;20030;-68
2021/04/09 10:18:16;;;;;;;15.40;7.00;;;;;;;13.25;34.71;99446.31;5010216;28;20113;-68
2021/04/09 10:20:42;;;;;;;10.85;6.38;;;;;;;13.40;34.78;99434.72;5010198;28;20065;-68
2021/04/09 10:23:08;;;;;;;22.15;6.88;;;;;;;13.70;34.72;99436.25;5010222;28;20042;-69
2021/04/09 10:25:35;;;;;;;10.35;6.28;;;;;;;13.74;34.36;99433.31;5010100;28;20045;-67
2021/04/09 10:28:04;;;;;;;26.63;10.13;;;;;;;14.00;34.38;99427.16;5010632;28;20440;-68
2021/04/09 10:30:31;;;;;;;21.75;7.45;;;;;;;14.87;32.84;99425.47;5009393;28;20042;-68
2021/04/09 10:32:57;;;;;;;14.50;6.20;;;;;;;15.53;31.81;99412.59;4990695;28;20044;-69
2021/04/09 10:35:26;;;;;;;8.63;5.70;;;;;;;16.37;30.75;99416.75;4990306;28;20046;-68
2021/04/09 10:38:05;;;;;;;10.18;5.70;;;;;;;16.83;29.82;99410.41;4990339;28;20050;-69
2021/04/09 10:40:31;;;;;;;12.48;7.22;;;;;;;17.70;28.80;99406.78;4990362;28;20382;-69
2021/04/09 10:43:02;;;;;;;14.02;6.43;;;;;;;17.70;28.16;99404.13;4976496;28;20035;-68
2021/04/09 10:45:28;;;;;;;11.57;5.80;;;;;;;17.60;28.44;99409.41;4971818;28;20055;-68
2021/04/09 10:47:54;;;;;;;15.90;7.45;;;;;;;17.33;28.96;99404.56;4971799;28;20625;-69
2021/04/09 10:50:20;;;;;;;14.63;6.45;;;;;;;17.08;28.79;99397.72;4954090;28;20039;-69
2021/04/09 10:52:46;;;;;;;11.48;5.65;;;;;;;16.33;30.48;99396.66;4970898;28;20039;-69
2021/04/09 10:55:12;;;;;;;7.60;5.40;;;;;;;16.33;29.81;99394.00;4990026;28;20044;-68
2021/04/09 10:57:37;;;;;;;15.50;6.22;;;;;;;16.38;30.40;99388.31;5009703;28;20041;-69
2021/04/09 11:00:04;;;;;;;13.48;6.30;;;;;;;16.20;31.07;99388.81;5009420;28;20642;-69
2021/04/09 11:02:30;;;;;;;6.97;4.95;;;;;;;15.83;30.77;99388.19;5011190;28;20049;-69
2021/04/09 11:04:59;;;;;;;10.13;6.05;;;;;;;15.97;31.29;99387.09;5007728;28;20026;-69
2021/04/09 11:07:44;;;;;;;8.23;5.20;;;;;;;15.95;30.68;99395.19;4971544;28;20071;-69
2021/04/09 11:10:16;;;;;;;8.15;4.82;;;;;;;15.62;30.74;99391.47;4970618;28;20035;-69
2021/04/09 11:12:46;;;;;;;17.15;5.25;;;;;;;15.54;31.52;99385.91;4970826;28;20030;-70
2021/04/09 11:15:16;;;;;;;19.88;6.20;;;;;;;15.58;31.73;99378.53;4970796;28;20031;-69
2021/04/09 11:17:56;;;;;;;15.98;6.22;;;;;;;15.42;31.30;99377.06;4970688;28;20502;-69
2021/04/09 11:20:34;;;;;;;7.80;5.63;;;;;;;15.29;31.69;99364.84;4970246;28;20054;-68
2021/04/09 11:23:08;;;;;;;11.30;5.68;;;;;;;15.31;31.62;99366.41;4970757;28;20076;-67
2021/04/09 11:25:36;;;;;;;8.02;4.72;;;;;;;15.34;32.08;99368.81;4970322;28;20178;-68
2021/04/09 11:28:03;;;;;;;12.27;5.90;;;;;;;15.09;32.51;99364.53;4971213;28;20031;-69
2021/04/09 11:30:36;;;;;;;11.43;6.20;;;;;;;15.19;32.11;99360.22;4970872;28;20046;-68
2021/04/09 11:33:03;;;;;;;10.38;6.30;;;;;;;15.27;31.55;99369.41;4971143;28;20109;-69
2021/04/09 11:35:38;;;;;;;9.82;5.28;;;;;;;15.33;31.29;99360.97;4953483;28;20042;-67
2021/04/09 11:38:13;;;;;;;14.85;7.05;;;;;;;15.43;31.89;99351.31;4970162;28;20557;-68